Terminal Aerodrome Forecast
Issued by NWS Shreveport, LA

Home | Current Version | Previous Version | Text Only | Print | Product List | Glossary On
Versions: 1 2 3 4 5 6 7 8 9 10 11 12 13 14 15 16 17 18
000
FTUS44 KSHV 230057 AAA
TAFELD
TAF AMD
KELD 230057Z 2301/2324 16011G21KT P6SM VCSH SCT018 BKN035 OVC050
      TEMPO 2301/2304 3SM SHRA BR BKN018 OVC035
     FM230400 18011G17KT 4SM SHRA BR OVC005
     FM231500 20012G18KT 6SM SHRA BKN015 OVC025
     FM231800 21010KT P6SM -SHRA BKN035=

USA.gov is the U.S. government's official web portal to all federal, state and local government web resources and services.